Terminal Aerodrome Forecast
Issued by NWS

Home | Current Version | Previous Version | Text Only | Print | Product List | Glossary On
Versions: 1 2 3 4 5 6 7 8 9 10 11 12 13 14 15 16 17 18 19
000
FTUS44 KLZK 060500
TAFHRO
TAF
KHRO 060536Z 0606/0706 16005KT P6SM VCSH SCT040
      TEMPO 0610/0613 3SM BR BKN020
     FM061400 21008G15KT P6SM VCSH SCT015 BKN060
     FM061800 21010G20KT P6SM VCTS SCT030CB BKN250=

USA.gov is the U.S. government's official web portal to all federal, state and local government web resources and services.